createdAt,value
2018-07-25T00:02:55.092Z,5.90
2018-07-25T00:08:03.376Z,4.87
2018-07-25T00:13:07.323Z,4.57
2018-07-25T00:18:11.483Z,5.33
2018-07-25T00:23:17.868Z,5.40
2018-07-25T00:28:24.146Z,5.00
2018-07-25T00:33:26.975Z,5.80
2018-07-25T00:38:31.682Z,6.00
2018-07-25T00:43:37.204Z,5.50
2018-07-25T00:48:42.115Z,5.70
2018-07-25T00:53:46.336Z,5.50
2018-07-25T00:58:53.616Z,6.10
2018-07-25T01:03:58.452Z,6.20
2018-07-25T01:09:04.208Z,5.70
2018-07-25T01:14:12.660Z,6.43
2018-07-25T01:19:17.220Z,5.27
2018-07-25T01:24:21.895Z,5.90
2018-07-25T01:29:27.789Z,6.60
2018-07-25T01:34:32.188Z,5.30
2018-07-25T01:39:35.968Z,5.20
2018-07-25T01:44:39.557Z,5.90
2018-07-25T01:49:44.001Z,5.47
2018-07-25T01:54:49.147Z,6.67
2018-07-25T01:59:53.282Z,7.07
2018-07-25T02:04:57.473Z,5.60
2018-07-25T02:10:02.240Z,6.07
2018-07-25T02:15:05.402Z,6.60
2018-07-25T02:20:10.180Z,6.67
2018-07-25T02:25:13.168Z,5.60
2018-07-25T02:30:18.817Z,5.93
2018-07-25T02:35:24.173Z,6.67
2018-07-25T02:40:28.176Z,6.20
2018-07-25T02:45:32.555Z,7.07
2018-07-25T02:50:35.679Z,5.80
2018-07-25T02:55:39.192Z,6.37
2018-07-25T03:00:45.465Z,6.63
2018-07-25T03:05:51.573Z,5.70
2018-07-25T03:10:59.137Z,6.33
2018-07-25T03:16:04.099Z,7.30
2018-07-25T03:21:11.769Z,6.90
2018-07-25T03:26:16.034Z,6.67
2018-07-25T03:31:18.858Z,6.00
2018-07-25T03:36:22.608Z,7.30
2018-07-25T03:41:28.284Z,6.40
2018-07-25T03:46:31.533Z,6.10
2018-07-25T03:51:36.705Z,6.47
2018-07-25T03:56:40.919Z,7.27
2018-07-25T04:01:45.214Z,6.10
2018-07-25T04:06:50.949Z,7.27
2018-07-25T04:11:54.627Z,11.10
2018-07-25T04:16:57.981Z,16.20
2018-07-25T04:22:01.791Z,9.00
2018-07-25T04:27:07.423Z,7.80
2018-07-25T04:32:10.783Z,6.70
2018-07-25T04:37:15.277Z,8.13
2018-07-25T04:42:22.761Z,7.40
2018-07-25T04:47:25.520Z,7.13
2018-07-25T04:52:30.127Z,7.23
2018-07-25T04:57:35.452Z,8.43
2018-07-25T05:02:40.114Z,7.50
2018-07-25T05:07:43.497Z,8.23
2018-07-25T05:12:46.375Z,8.20
2018-07-25T05:17:50.026Z,8.43
2018-07-25T05:22:52.683Z,8.50
2018-07-25T05:27:55.427Z,9.07
2018-07-25T05:32:58.437Z,8.80
2018-07-25T05:38:01.548Z,8.90
2018-07-25T05:43:04.182Z,8.83
2018-07-25T05:48:07.737Z,8.80
2018-07-25T05:53:12.874Z,9.50
2018-07-25T05:58:15.670Z,9.63
2018-07-25T06:03:18.445Z,9.27
2018-07-25T06:08:25.311Z,9.63
2018-07-25T06:13:28.680Z,9.37
2018-07-25T06:18:31.389Z,8.10
2018-07-25T06:23:34.727Z,9.53
2018-07-25T06:28:40.431Z,8.00
2018-07-25T06:33:44.966Z,8.87
2018-07-25T06:38:49.387Z,6.87
2018-07-25T06:43:52.707Z,9.40
2018-07-25T06:48:55.561Z,9.50
2018-07-25T06:53:58.364Z,9.00
2018-07-25T06:59:01.344Z,8.37
2018-07-25T07:04:04.859Z,9.97
2018-07-25T07:09:07.642Z,9.10
2018-07-25T07:14:11.169Z,8.60
2018-07-25T07:19:15.322Z,8.70
2018-07-25T07:24:18.562Z,8.53
2018-07-25T07:29:23.638Z,9.13
2018-07-25T07:34:28.062Z,8.60
2018-07-25T07:39:31.326Z,8.90
2018-07-25T07:44:34.120Z,7.20
2018-07-25T07:49:38.106Z,6.70
2018-07-25T07:54:42.040Z,7.73
2018-07-25T07:59:45.301Z,6.40
2018-07-25T08:04:48.200Z,6.40
2018-07-25T08:09:51.682Z,6.60
2018-07-25T08:14:55.130Z,6.67
2018-07-25T08:19:59.668Z,6.23
2018-07-25T08:25:02.443Z,5.63
2018-07-25T08:30:05.264Z,4.83
2018-07-25T08:35:08.727Z,5.20
2018-07-25T08:40:13.377Z,5.20
2018-07-25T08:45:16.170Z,4.67
2018-07-25T08:50:19.930Z,5.33
2018-07-25T08:55:24.654Z,4.77
2018-07-25T09:00:28.896Z,5.13
2018-07-25T09:05:31.600Z,5.33
2018-07-25T09:10:34.538Z,4.93
2018-07-25T09:15:38.973Z,4.50
2018-07-25T09:20:45.675Z,4.97
2018-07-25T09:25:48.439Z,4.07
2018-07-25T09:30:51.384Z,5.20
2018-07-25T09:35:54.105Z,4.10
2018-07-25T09:40:58.044Z,4.57
2018-07-25T09:46:02.355Z,4.93
2018-07-25T09:51:06.903Z,4.30
2018-07-25T09:56:11.977Z,3.30
2018-07-25T10:01:15.375Z,3.53
2018-07-25T10:06:20.122Z,3.30
2018-07-25T10:11:23.590Z,4.50
2018-07-25T10:16:31.143Z,3.40
2018-07-25T10:21:37.724Z,3.03
2018-07-25T10:26:42.689Z,3.40
2018-07-25T10:31:45.835Z,3.47
2018-07-25T10:36:49.622Z,3.40
2018-07-25T10:41:56.244Z,2.70
2018-07-25T10:46:59.992Z,2.93
2018-07-25T10:52:05.234Z,2.67
2018-07-25T10:57:09.909Z,3.10
2018-07-25T11:02:16.260Z,2.60
2018-07-25T11:07:23.611Z,2.67
2018-07-25T11:12:30.914Z,2.73
2018-07-25T11:17:34.653Z,1.97
2018-07-25T11:22:39.966Z,2.90
2018-07-25T11:27:44.884Z,2.83
2018-07-25T11:32:49.975Z,2.30
2018-07-25T11:37:53.650Z,2.10
2018-07-25T11:43:00.271Z,2.53
2018-07-25T11:48:03.959Z,2.70
2018-07-25T11:53:09.358Z,1.77
2018-07-25T11:58:13.983Z,3.10
2018-07-25T12:03:18.649Z,2.40
2018-07-25T12:08:22.599Z,2.50
2018-07-25T12:13:29.384Z,2.63
2018-07-25T12:18:37.373Z,2.60
2018-07-25T12:23:41.199Z,2.67
2018-07-25T12:28:46.060Z,2.37
2018-07-25T12:33:49.759Z,2.97
2018-07-25T12:38:56.517Z,2.57
2018-07-25T12:44:01.813Z,2.40
2018-07-25T12:49:05.285Z,2.70
2018-07-25T12:54:11.648Z,2.70
2018-07-25T12:59:16.319Z,2.27
2018-07-25T13:04:29.034Z,1.83
2018-07-25T13:09:33.543Z,1.87
2018-07-25T13:14:37.905Z,1.70
2018-07-25T13:19:41.768Z,1.27
2018-07-25T13:24:46.720Z,2.33
2018-07-25T13:29:53.541Z,2.03
2018-07-25T13:34:58.408Z,1.70
2018-07-25T13:40:04.712Z,1.63
2018-07-25T13:45:09.207Z,1.80
2018-07-25T13:50:16.299Z,2.17
2018-07-25T13:55:24.585Z,1.70
2018-07-25T14:00:29.626Z,1.73
2018-07-25T14:05:37.148Z,1.63
2018-07-25T14:10:41.918Z,1.93
2018-07-25T14:15:46.367Z,1.70
2018-07-25T14:20:54.765Z,1.60
2018-07-25T14:31:11.179Z,1.03
2018-07-25T14:36:15.865Z,1.20
2018-07-25T14:41:19.566Z,1.33
2018-07-25T14:46:26.480Z,1.00
2018-07-25T14:51:31.400Z,1.40
2018-07-25T14:56:36.598Z,1.60
2018-07-25T15:01:41.290Z,1.00
2018-07-25T15:06:50.305Z,1.30
2018-07-25T15:11:56.678Z,1.53
2018-07-25T15:17:02.310Z,1.30
2018-07-25T15:22:06.700Z,1.80
2018-07-25T15:27:09.798Z,1.57
2018-07-25T15:32:13.528Z,1.57
2018-07-25T15:37:16.341Z,1.70
2018-07-25T15:42:18.934Z,1.60
2018-07-25T15:47:21.767Z,1.87
2018-07-25T15:52:24.297Z,1.77
2018-07-25T15:57:26.971Z,1.77
2018-07-25T16:02:30.159Z,1.70
2018-07-25T16:07:32.814Z,1.90
2018-07-25T16:12:35.485Z,1.60
2018-07-25T16:17:38.066Z,1.70
2018-07-25T16:22:40.614Z,2.03
2018-07-25T16:27:43.464Z,1.90
2018-07-25T16:32:46.196Z,1.63
2018-07-25T16:43:47.372Z,1.67
2018-07-25T16:48:49.833Z,2.30
2018-07-25T16:53:52.321Z,1.67
2018-07-25T16:58:54.809Z,1.27
2018-07-25T17:03:57.304Z,2.07
2018-07-25T17:08:59.798Z,1.30
2018-07-25T17:14:02.298Z,1.20
2018-07-25T17:19:04.845Z,1.43
2018-07-25T17:24:07.327Z,1.67
2018-07-25T17:29:09.798Z,1.03
2018-07-25T17:34:12.278Z,1.17
2018-07-25T17:39:14.762Z,1.80
2018-07-25T17:44:17.285Z,1.47
2018-07-25T17:49:19.789Z,1.60
2018-07-25T17:54:22.277Z,1.70
2018-07-25T17:59:24.752Z,1.70
2018-07-25T18:04:27.237Z,1.30
2018-07-25T18:09:29.718Z,1.80
2018-07-25T18:14:32.201Z,1.47
2018-07-25T18:19:34.689Z,3.70
2018-07-25T18:24:37.181Z,2.10
2018-07-25T18:29:39.660Z,1.97
2018-07-25T18:34:42.141Z,1.53
2018-07-25T18:39:44.633Z,1.90
2018-07-25T18:44:47.122Z,1.93
2018-07-25T18:49:49.773Z,2.13
2018-07-25T18:54:52.269Z,1.37
2018-07-25T18:59:54.732Z,1.80
2018-07-25T19:04:58.041Z,1.40
2018-07-25T19:10:00.617Z,1.63
2018-07-25T19:15:19.533Z,1.30
2018-07-25T19:20:22.173Z,1.50
2018-07-25T19:25:24.687Z,1.47
2018-07-25T19:30:27.160Z,1.60
2018-07-25T19:35:29.686Z,1.47
2018-07-25T19:40:32.924Z,1.67
2018-07-25T19:45:36.221Z,1.87
2018-07-25T19:50:39.469Z,1.70
2018-07-25T19:55:41.953Z,2.47
2018-07-25T20:00:45.025Z,1.40
2018-07-25T20:05:47.493Z,1.57
2018-07-25T20:10:49.954Z,1.60
2018-07-25T20:15:56.318Z,1.87
2018-07-25T20:20:59.630Z,2.50
2018-07-25T20:26:02.230Z,2.30
2018-07-25T20:31:05.550Z,2.03
2018-07-25T20:36:08.034Z,2.63
2018-07-25T20:41:10.549Z,3.30
2018-07-25T20:46:13.024Z,2.07
2018-07-25T20:51:15.509Z,1.50
2018-07-25T20:56:18.005Z,2.07
2018-07-25T21:01:20.484Z,2.40
2018-07-25T21:06:23.025Z,2.20
2018-07-25T21:11:25.510Z,2.30
2018-07-25T21:16:27.991Z,2.10
2018-07-25T21:21:30.525Z,2.90
2018-07-25T21:26:33.002Z,2.03
2018-07-25T21:31:35.517Z,2.40
2018-07-25T21:36:38.760Z,2.33
2018-07-25T21:41:41.241Z,2.50
2018-07-25T21:46:44.396Z,2.40
2018-07-25T21:51:47.652Z,2.87
2018-07-25T21:56:50.878Z,2.83
2018-07-25T22:01:53.349Z,2.53
2018-07-25T22:06:55.887Z,2.67
2018-07-25T22:11:58.473Z,3.10
2018-07-25T22:17:01.285Z,2.20
2018-07-25T22:22:03.875Z,2.00
2018-07-25T22:27:07.121Z,2.50
2018-07-25T22:32:09.697Z,2.13
2018-07-25T22:37:12.307Z,2.73
2018-07-25T22:42:15.626Z,2.80
2018-07-25T22:47:18.101Z,3.07
2018-07-25T22:52:20.905Z,3.63
2018-07-25T22:57:23.406Z,3.00
2018-07-25T23:02:25.891Z,2.50
2018-07-25T23:07:28.406Z,2.73
2018-07-25T23:12:31.714Z,2.60
2018-07-25T23:17:34.962Z,2.87
2018-07-25T23:22:37.525Z,2.80
2018-07-25T23:27:40.013Z,2.43
2018-07-25T23:32:42.492Z,3.03
2018-07-25T23:37:44.969Z,2.80
2018-07-25T23:42:47.523Z,3.17
2018-07-25T23:47:49.978Z,2.63
2018-07-25T23:52:52.450Z,2.60
2018-07-25T23:57:54.932Z,2.30
